Time;durP1;ratioP1;P1;durP2;ratioP2;P2;SDS_P1;SDS_P2;PMS_P1;PMS_P2;Temp;Humidity;BMP_temperature;BMP_pressure;BME280_temperature;BME280_humidity;BME280_pressure;Samples;Min_cycle;Max_cycle;Signal;HPM_P1;HPM_P2
2021/06/18 00:01:53;;;;;;;7.80;5.68;;;;;;;21.29;52.26;100253.75;5065061;28;20053;-62
2021/06/18 00:04:19;;;;;;;10.18;5.15;;;;;;;21.29;52.20;100266.94;5064816;28;20017;-63
2021/06/18 00:06:44;;;;;;;7.90;5.15;;;;;;;21.31;52.32;100266.88;5064949;28;20032;-63
2021/06/18 00:09:09;;;;;;;7.55;5.20;;;;;;;21.30;52.28;100247.56;5064665;28;20021;-63
2021/06/18 00:11:35;;;;;;;8.38;5.65;;;;;;;21.32;52.04;100250.09;5064937;28;20088;-62
2021/06/18 00:14:01;;;;;;;8.90;6.10;;;;;;;21.28;52.13;100241.50;5064845;28;20021;-63
2021/06/18 00:16:26;;;;;;;6.90;5.45;;;;;;;21.25;52.39;100244.31;5064629;28;20104;-62
2021/06/18 00:18:52;;;;;;;8.43;5.07;;;;;;;21.15;52.68;100232.59;5064640;28;20048;-63
2021/06/18 00:21:17;;;;;;;8.48;5.60;;;;;;;21.13;52.72;100234.44;5064622;28;20492;-63
2021/06/18 00:23:43;;;;;;;8.52;5.63;;;;;;;21.16;52.46;100207.88;5046394;28;20112;-63
2021/06/18 00:26:08;;;;;;;9.93;5.43;;;;;;;21.21;52.38;100216.41;5063890;28;20029;-63
2021/06/18 00:28:35;;;;;;;7.50;4.97;;;;;;;21.07;52.85;100211.03;5064384;28;20036;-63
2021/06/18 00:31:01;;;;;;;7.28;5.28;;;;;;;21.13;52.75;100214.19;5064496;28;20025;-63
2021/06/18 00:33:28;;;;;;;6.30;5.50;;;;;;;21.03;52.83;100195.38;5064797;28;20021;-63
2021/06/18 00:35:53;;;;;;;9.55;5.28;;;;;;;21.02;53.06;100211.28;5063402;28;20076;-63
2021/06/18 00:38:19;;;;;;;8.75;6.20;;;;;;;20.94;53.23;100209.09;5046478;28;20032;-63
2021/06/18 00:40:46;;;;;;;9.02;6.03;;;;;;;20.97;53.23;100208.06;5064093;28;20020;-63
2021/06/18 00:43:11;;;;;;;7.03;5.15;;;;;;;20.92;53.34;100206.53;5063280;28;20025;-63
2021/06/18 00:45:37;;;;;;;8.13;6.22;;;;;;;20.85;53.72;100209.53;5064251;28;20170;-63
2021/06/18 00:48:03;;;;;;;9.60;6.30;;;;;;;20.79;53.78;100201.06;5046009;28;20052;-63
2021/06/18 00:50:29;;;;;;;7.03;5.70;;;;;;;20.83;53.95;100203.50;5064057;28;20081;-63
2021/06/18 00:52:55;;;;;;;9.48;5.80;;;;;;;20.82;53.91;100194.75;5064127;28;20501;-64
2021/06/18 00:55:20;;;;;;;8.13;6.82;;;;;;;20.79;53.85;100190.50;5063824;28;20020;-63
2021/06/18 00:57:46;;;;;;;9.07;6.70;;;;;;;20.75;54.07;100220.59;5063903;28;20017;-63
2021/06/18 01:00:12;;;;;;;8.05;6.07;;;;;;;20.72;54.13;100233.13;5063788;28;20025;-63
2021/06/18 01:02:38;;;;;;;7.90;7.10;;;;;;;20.73;54.16;100233.03;5064004;28;20029;-63
2021/06/18 01:05:07;;;;;;;7.07;6.28;;;;;;;20.79;54.46;100222.16;5045990;28;20020;-63
2021/06/18 01:07:38;;;;;;;8.95;6.45;;;;;;;20.74;54.34;100240.00;5064028;28;20032;-63
2021/06/18 01:10:16;;;;;;;10.23;7.60;;;;;;;20.75;54.56;100225.03;5063631;28;20032;-63
2021/06/18 01:13:09;;;;;;;9.25;6.68;;;;;;;20.78;54.34;100230.97;5063605;28;20017;-63
2021/06/18 01:15:34;;;;;;;9.77;7.05;;;;;;;20.83;54.24;100233.38;5063409;28;20037;-63
2021/06/18 01:18:03;;;;;;;11.30;7.38;;;;;;;20.77;54.49;100229.28;5063582;28;20063;-63
2021/06/18 01:20:50;;;;;;;9.13;7.18;;;;;;;20.78;54.40;100220.44;5063368;28;20073;-64
2021/06/18 01:23:29;;;;;;;9.60;7.28;;;;;;;20.87;54.30;100228.78;5063496;28;20051;-64
2021/06/18 01:26:03;;;;;;;9.85;7.40;;;;;;;20.83;54.57;100229.91;5063372;28;20092;-63
2021/06/18 01:28:40;;;;;;;10.13;7.45;;;;;;;20.87;54.46;100234.06;5063289;28;20071;-63
2021/06/18 01:31:08;;;;;;;8.98;6.90;;;;;;;20.84;54.81;100227.19;5063473;28;20029;-63
2021/06/18 01:33:36;;;;;;;10.02;6.95;;;;;;;20.91;54.58;100225.06;5063490;28;20028;-63
2021/06/18 01:36:04;;;;;;;8.70;7.25;;;;;;;20.92;54.58;100213.59;5063329;28;20029;-63
2021/06/18 01:38:34;;;;;;;9.90;7.35;;;;;;;20.93;54.67;100217.91;5044594;28;20395;-64
2021/06/18 01:41:03;;;;;;;13.43;7.70;;;;;;;20.96;54.74;100228.31;5063473;28;20287;-63
2021/06/18 01:43:30;;;;;;;11.05;8.20;;;;;;;20.92;54.76;100210.94;5063458;28;20547;-63
2021/06/18 01:45:58;;;;;;;11.38;8.32;;;;;;;20.94;55.34;100214.38;5063159;28;20036;-63
2021/06/18 01:48:25;;;;;;;10.38;8.63;;;;;;;20.96;55.22;100209.84;5062934;28;20159;-63
2021/06/18 01:50:52;;;;;;;11.52;8.52;;;;;;;21.08;55.23;100215.38;5062870;28;20032;-63
2021/06/18 01:53:20;;;;;;;13.02;9.77;;;;;;;21.21;55.42;100211.13;5062911;28;20035;-63
2021/06/18 01:55:48;;;;;;;14.73;9.25;;;;;;;21.28;55.71;100211.59;5063104;28;20021;-63
2021/06/18 01:58:16;;;;;;;13.45;8.68;;;;;;;21.33;55.60;100208.69;5062689;28;20480;-63
2021/06/18 02:00:48;;;;;;;11.57;9.75;;;;;;;21.41;55.57;100211.75;5062825;28;20029;-63
2021/06/18 02:03:20;;;;;;;11.85;9.93;;;;;;;21.51;55.73;100209.44;5045279;28;20021;-62
2021/06/18 02:05:47;;;;;;;13.63;9.55;;;;;;;21.55;55.91;100206.53;5063123;28;20086;-62
2021/06/18 02:08:14;;;;;;;12.93;9.65;;;;;;;21.59;55.75;100214.28;5062665;28;20025;-62
2021/06/18 02:10:46;;;;;;;9.70;8.73;;;;;;;21.72;55.85;100210.00;5061712;28;20021;-63
2021/06/18 02:13:13;;;;;;;10.25;8.80;;;;;;;21.70;55.81;100195.16;5062627;28;20115;-63
2021/06/18 02:15:41;;;;;;;12.30;10.07;;;;;;;21.82;55.79;100198.91;5062654;28;20412;-62
2021/06/18 02:18:10;;;;;;;10.48;9.38;;;;;;;21.87;55.99;100212.69;5062622;28;20025;-63
2021/06/18 02:20:37;;;;;;;11.57;9.10;;;;;;;21.87;56.01;100194.22;5062719;28;20032;-63
2021/06/18 02:23:03;;;;;;;13.85;9.80;;;;;;;21.84;56.04;100200.50;5044720;28;20031;-63
2021/06/18 02:25:31;;;;;;;16.60;9.88;;;;;;;21.85;56.28;100193.44;5062780;28;20099;-63
2021/06/18 02:27:59;;;;;;;14.82;9.45;;;;;;;21.82;56.50;100190.97;5061287;28;20040;-63
2021/06/18 02:30:24;;;;;;;13.52;9.52;;;;;;;21.71;56.40;100175.75;5062927;28;20025;-63
2021/06/18 02:32:52;;;;;;;10.35;9.27;;;;;;;21.78;56.80;100185.03;5063047;28;20021;-62
2021/06/18 02:35:17;;;;;;;11.02;9.70;;;;;;;21.76;56.77;100190.34;5062912;28;20043;-62
2021/06/18 02:37:43;;;;;;;11.48;9.40;;;;;;;21.75;57.01;100187.81;5062526;28;20025;-62
2021/06/18 02:40:09;;;;;;;11.45;8.70;;;;;;;21.71;57.17;100192.41;5061217;28;20120;-62
2021/06/18 02:42:34;;;;;;;12.82;9.23;;;;;;;21.68;57.08;100176.75;5062783;28;20025;-62
2021/06/18 02:45:00;;;;;;;14.80;9.50;;;;;;;21.63;57.31;100184.13;5062761;28;20017;-62
2021/06/18 02:47:31;;;;;;;12.88;9.65;;;;;;;21.55;57.48;100200.38;5062514;28;20117;-63
2021/06/18 02:50:37;;;;;;;12.87;8.97;;;;;;;21.50;57.78;100192.72;5065562;28;20163;-63
2021/06/18 02:53:28;;;;;;;13.40;9.88;;;;;;;21.43;58.00;100191.41;5004047;28;20264;-64
2021/06/18 02:56:32;;;;;;;17.73;10.68;;;;;;;21.34;58.33;100202.50;5004306;28;20030;-63
2021/06/18 02:59:07;;;;;;;18.80;10.60;;;;;;;21.32;58.53;100212.28;5004145;28;20030;-64
2021/06/18 03:01:37;;;;;;;11.05;9.45;;;;;;;21.29;58.91;100214.16;5004242;28;20033;-63
2021/06/18 03:04:03;;;;;;;12.88;9.98;;;;;;;21.25;58.79;100196.78;5004074;28;20030;-63
2021/06/18 03:06:31;;;;;;;13.65;9.35;;;;;;;21.32;58.97;100209.66;5004300;28;20037;-64
2021/06/18 03:08:59;;;;;;;18.05;10.48;;;;;;;21.44;58.96;100214.22;5003726;28;20342;-64
2021/06/18 03:11:39;;;;;;;13.48;9.70;;;;;;;21.43;59.05;100217.81;5003731;28;20503;-64
2021/06/18 03:14:11;;;;;;;14.02;10.10;;;;;;;21.42;59.28;100216.94;5003886;28;20106;-64
2021/06/18 03:16:40;;;;;;;15.25;10.50;;;;;;;21.53;59.33;100220.78;5003726;28;20089;-64
2021/06/18 03:19:08;;;;;;;18.30;10.93;;;;;;;21.62;59.35;100225.53;5003749;28;20198;-64
2021/06/18 03:21:36;;;;;;;12.43;10.80;;;;;;;21.79;59.13;100231.63;5003561;28;20030;-64
2021/06/18 03:24:03;;;;;;;13.43;10.55;;;;;;;21.94;58.67;100232.53;5041165;28;20073;-64
2021/06/18 03:26:30;;;;;;;14.40;10.95;;;;;;;21.98;58.31;100233.19;5065695;28;20048;-64
2021/06/18 03:28:57;;;;;;;16.40;10.48;;;;;;;22.05;58.39;100231.88;5065612;28;20048;-64
2021/06/18 03:31:24;;;;;;;13.57;9.75;;;;;;;22.17;58.28;100249.63;5065553;28;20032;-64
2021/06/18 03:33:50;;;;;;;12.30;9.77;;;;;;;22.32;57.79;100244.38;5065600;28;20031;-64
2021/06/18 03:36:21;;;;;;;13.13;9.75;;;;;;;22.48;57.43;100254.00;5065597;28;20503;-64
2021/06/18 03:38:47;;;;;;;17.30;11.73;;;;;;;22.63;57.49;100252.25;5065319;28;20032;-64
2021/06/18 03:41:13;;;;;;;16.42;9.57;;;;;;;22.76;57.04;100253.19;5065337;28;20048;-64
2021/06/18 03:43:39;;;;;;;12.75;9.48;;;;;;;22.94;56.83;100255.63;5065311;28;20465;-63
2021/06/18 03:46:07;;;;;;;10.90;9.80;;;;;;;23.18;56.43;100255.00;5065067;28;20029;-63
2021/06/18 03:48:33;;;;;;;13.20;9.93;;;;;;;23.39;55.70;100262.53;5065121;28;20052;-64
2021/06/18 03:50:59;;;;;;;16.45;10.35;;;;;;;23.53;55.19;100261.66;5065185;28;20025;-63
2021/06/18 03:53:25;;;;;;;13.32;9.70;;;;;;;23.63;55.02;100261.88;5065221;28;20021;-62
2021/06/18 03:55:50;;;;;;;16.98;9.73;;;;;;;23.74;55.25;100259.38;5065135;28;20086;-62
2021/06/18 03:58:20;;;;;;;16.27;10.50;;;;;;;23.95;54.41;100263.31;5064761;28;20059;-62
2021/06/18 04:00:47;;;;;;;13.73;10.05;;;;;;;23.77;54.52;100259.16;5064287;28;20024;-62
2021/06/18 04:03:13;;;;;;;16.00;10.15;;;;;;;23.66;54.82;100255.53;5064915;28;20032;-63
2021/06/18 04:05:42;;;;;;;14.63;10.48;;;;;;;23.62;55.14;100271.66;5064926;28;20061;-63
2021/06/18 04:08:08;;;;;;;12.57;9.75;;;;;;;23.73;55.21;100278.88;5064691;28;20057;-64
2021/06/18 04:10:33;;;;;;;15.07;10.55;;;;;;;23.90;55.06;100271.59;5064691;28;20017;-64
2021/06/18 04:13:01;;;;;;;15.27;11.35;;;;;;;24.07;54.48;100280.22;5063230;28;20023;-63
2021/06/18 04:15:27;;;;;;;15.05;11.10;;;;;;;24.16;54.63;100282.28;5064355;28;20105;-64
2021/06/18 04:17:53;;;;;;;15.52;10.48;;;;;;;24.30;54.35;100272.53;5064284;28;20029;-68
2021/06/18 04:20:20;;;;;;;13.60;10.15;;;;;;;24.44;54.03;100283.00;5064429;28;20025;-64
2021/06/18 04:22:48;;;;;;;18.63;12.15;;;;;;;24.54;53.84;100282.41;5064666;28;20033;-65
2021/06/18 04:25:13;;;;;;;16.95;12.25;;;;;;;24.50;53.75;100282.63;5064615;28;20131;-65
2021/06/18 04:27:39;;;;;;;18.00;12.30;;;;;;;24.45;54.50;100282.06;5046841;28;20354;-64
2021/06/18 04:30:08;;;;;;;16.10;11.82;;;;;;;24.66;54.16;100273.56;5064441;28;20017;-65
2021/06/18 04:32:33;;;;;;;18.73;11.63;;;;;;;24.88;53.83;100274.69;5064472;28;20031;-64
2021/06/18 04:34:59;;;;;;;15.07;11.40;;;;;;;25.09;52.88;100284.78;5064438;28;20084;-68
2021/06/18 04:37:24;;;;;;;13.68;10.50;;;;;;;25.29;52.78;100274.50;5063264;28;20107;-67
2021/06/18 04:39:49;;;;;;;15.77;10.98;;;;;;;25.43;52.43;100274.31;5064182;28;20056;-72
2021/06/18 04:42:15;;;;;;;12.68;10.77;;;;;;;25.65;51.73;100278.09;5046242;28;20092;-69
2021/06/18 04:44:40;;;;;;;22.27;11.82;;;;;;;25.59;51.47;100282.00;5064094;28;20016;-65
2021/06/18 04:47:06;;;;;;;16.00;11.45;;;;;;;25.54;51.97;100289.50;5063863;28;20044;-66
2021/06/18 04:49:34;;;;;;;14.88;11.40;;;;;;;25.64;51.68;100283.53;5063755;28;20052;-66
2021/06/18 04:52:00;;;;;;;16.27;11.70;;;;;;;25.63;51.32;100285.31;5063833;28;20040;-67
2021/06/18 04:54:26;;;;;;;14.75;11.95;;;;;;;25.31;51.98;100286.72;5063813;28;20021;-63
2021/06/18 04:56:52;;;;;;;15.23;11.88;;;;;;;25.18;52.91;100286.75;5063845;28;20088;-63
2021/06/18 04:59:19;;;;;;;18.75;11.73;;;;;;;25.35;52.73;100288.19;5064011;28;20020;-63
2021/06/18 05:01:45;;;;;;;19.15;12.27;;;;;;;25.57;52.02;100285.75;5064057;28;20024;-64
2021/06/18 05:04:11;;;;;;;17.92;13.50;;;;;;;25.68;51.83;100283.19;5063942;28;20302;-63
2021/06/18 05:06:36;;;;;;;19.15;13.90;;;;;;;25.77;51.65;100292.25;5063817;28;20457;-63
2021/06/18 05:09:04;;;;;;;18.98;11.65;;;;;;;25.95;51.16;100290.03;5063572;28;20048;-64
2021/06/18 05:11:29;;;;;;;18.85;12.20;;;;;;;26.26;51.13;100299.31;5063531;28;20070;-64
2021/06/18 05:13:55;;;;;;;19.08;13.05;;;;;;;26.50;50.21;100303.72;5063708;28;20021;-65
2021/06/18 05:16:20;;;;;;;15.98;11.77;;;;;;;26.78;49.53;100297.06;5063625;28;20155;-64
2021/06/18 05:18:45;;;;;;;15.43;11.43;;;;;;;26.92;48.97;100297.78;5063470;28;20021;-65
2021/06/18 05:21:11;;;;;;;15.45;11.57;;;;;;;26.97;48.69;100317.75;5063422;28;20021;-64
2021/06/18 05:23:36;;;;;;;15.98;12.43;;;;;;;27.22;48.40;100314.97;5063609;28;20043;-63
2021/06/18 05:26:02;;;;;;;13.80;12.15;;;;;;;27.36;47.98;100324.50;5063372;28;20029;-63
2021/06/18 05:28:27;;;;;;;13.52;12.13;;;;;;;27.36;47.89;100327.19;5063553;28;20028;-64
2021/06/18 05:30:52;;;;;;;15.05;12.45;;;;;;;27.34;47.60;100331.78;5063290;28;20056;-64
2021/06/18 05:33:18;;;;;;;17.67;12.23;;;;;;;27.52;47.61;100328.59;5063450;28;20064;-64
2021/06/18 05:35:44;;;;;;;22.35;13.10;;;;;;;27.80;46.76;100323.66;5063289;28;20222;-64
2021/06/18 05:38:10;;;;;;;16.73;12.75;;;;;;;27.86;46.23;100325.81;5063541;28;20021;-63
2021/06/18 05:40:36;;;;;;;18.40;13.27;;;;;;;27.65;46.35;100331.94;5063177;28;20023;-63
2021/06/18 05:43:03;;;;;;;17.35;13.20;;;;;;;27.54;46.88;100346.13;5063293;28;20020;-62
2021/06/18 05:45:32;;;;;;;20.63;14.40;;;;;;;27.51;46.70;100341.06;5063181;28;20025;-63
2021/06/18 05:47:57;;;;;;;19.90;13.15;;;;;;;27.52;46.94;100349.91;5063340;28;20123;-64
2021/06/18 05:50:23;;;;;;;15.95;13.55;;;;;;;27.53;46.60;100344.44;5062977;28;20084;-65
2021/06/18 05:52:48;;;;;;;18.52;15.57;;;;;;;27.39;46.84;100342.06;5063101;28;20021;-64
2021/06/18 05:55:14;;;;;;;16.98;13.40;;;;;;;27.31;47.18;100351.53;5063382;28;20021;-65
2021/06/18 05:57:39;;;;;;;16.75;13.52;;;;;;;27.36;47.45;100353.81;5063139;28;20031;-64
2021/06/18 06:00:05;;;;;;;16.48;12.85;;;;;;;27.30;47.37;100351.66;5063008;28;20017;-65
2021/06/18 06:02:31;;;;;;;17.23;12.93;;;;;;;27.53;47.02;100354.25;5063207;28;20033;-64
2021/06/18 06:04:56;;;;;;;17.70;13.38;;;;;;;27.70;46.48;100356.41;5063068;28;20021;-65
2021/06/18 06:07:22;;;;;;;18.73;15.70;;;;;;;27.75;46.11;100355.22;5063013;28;20036;-64
2021/06/18 06:09:47;;;;;;;30.70;15.05;;;;;;;27.75;46.70;100355.22;5062704;28;20396;-65
2021/06/18 06:12:12;;;;;;;16.05;13.88;;;;;;;27.95;45.96;100367.75;5062785;28;20031;-64
2021/06/18 06:14:38;;;;;;;20.35;13.35;;;;;;;28.12;45.85;100364.59;5062790;28;20025;-64
2021/06/18 06:17:04;;;;;;;19.92;14.43;;;;;;;28.33;45.35;100370.84;5062818;28;20120;-64
2021/06/18 06:19:29;;;;;;;21.13;13.70;;;;;;;28.43;44.90;100368.25;5062810;28;20029;-64
2021/06/18 06:21:54;;;;;;;15.70;12.98;;;;;;;28.70;44.62;100374.88;5062687;28;20029;-63
2021/06/18 06:24:20;;;;;;;17.40;12.55;;;;;;;29.02;43.54;100382.91;5065108;28;20155;-64
2021/06/18 06:26:45;;;;;;;15.98;11.90;;;;;;;29.11;43.10;100387.44;5066657;28;20408;-63
2021/06/18 06:29:11;;;;;;;19.02;12.60;;;;;;;29.37;43.17;100392.31;5066314;28;20049;-64
2021/06/18 06:31:37;;;;;;;18.92;12.52;;;;;;;29.65;42.24;100375.66;5065440;28;20021;-63
2021/06/18 06:34:02;;;;;;;17.58;12.68;;;;;;;29.74;42.13;100398.03;5065442;28;20036;-63
2021/06/18 06:36:28;;;;;;;14.82;12.10;;;;;;;29.94;41.88;100399.72;5066726;28;20028;-64
2021/06/18 06:38:53;;;;;;;18.98;13.40;;;;;;;30.22;41.17;100400.88;5066360;28;20079;-64
2021/06/18 06:41:18;;;;;;;19.60;11.70;;;;;;;30.23;41.27;100398.06;5066304;28;20082;-64
2021/06/18 06:43:44;;;;;;;17.05;11.43;;;;;;;30.45;40.64;100406.75;5066531;28;20611;-63
2021/06/18 06:46:09;;;;;;;19.02;12.07;;;;;;;30.33;40.67;100407.91;5066282;28;20021;-63
2021/06/18 06:48:34;;;;;;;15.20;13.02;;;;;;;30.73;39.90;100398.81;5066168;28;20129;-63
2021/06/18 06:51:00;;;;;;;17.73;11.88;;;;;;;30.76;39.72;100406.56;5066237;28;20290;-63
2021/06/18 06:53:25;;;;;;;17.67;12.90;;;;;;;30.77;39.51;100407.38;5066416;28;20016;-63
2021/06/18 06:55:51;;;;;;;15.45;12.48;;;;;;;30.64;39.05;100405.88;5066162;28;20053;-63
2021/06/18 06:58:17;;;;;;;20.52;12.95;;;;;;;30.60;39.62;100420.56;5066104;28;20339;-63
2021/06/18 07:00:42;;;;;;;17.00;12.23;;;;;;;30.63;39.08;100417.56;5066089;28;20025;-64
2021/06/18 07:03:07;;;;;;;12.55;11.20;;;;;;;30.76;39.32;100429.81;5065909;28;20074;-64
2021/06/18 07:05:33;;;;;;;13.25;11.20;;;;;;;30.97;38.84;100436.81;5066309;28;20029;-63
2021/06/18 07:07:58;;;;;;;14.15;11.10;;;;;;;31.16;38.13;100422.50;5066040;28;20120;-64
2021/06/18 07:10:24;;;;;;;14.70;11.18;;;;;;;31.22;38.41;100423.72;5065786;28;20056;-63
2021/06/18 07:12:49;;;;;;;14.52;11.43;;;;;;;31.62;37.48;100417.19;5065875;28;20024;-63
2021/06/18 07:15:16;;;;;;;14.57;12.57;;;;;;;31.48;37.02;100437.34;5065487;28;20113;-63
2021/06/18 07:17:41;;;;;;;17.88;12.98;;;;;;;31.47;37.35;100432.13;5065828;28;20098;-64
2021/06/18 07:20:07;;;;;;;16.73;12.80;;;;;;;31.39;37.43;100444.44;5065786;28;20428;-64
2021/06/18 07:22:32;;;;;;;18.95;13.23;;;;;;;31.36;37.51;100443.88;5065817;28;20485;-64
2021/06/18 07:24:59;;;;;;;15.90;11.70;;;;;;;31.38;37.66;100449.94;5065899;28;20150;-67
2021/06/18 07:27:26;;;;;;;18.50;12.95;;;;;;;31.42;37.61;100456.72;5065733;28;20448;-64
2021/06/18 07:29:54;;;;;;;14.82;11.63;;;;;;;31.50;36.93;100461.31;5065520;28;20466;-64
2021/06/18 07:32:22;;;;;;;15.13;10.45;;;;;;;31.41;36.89;100460.38;5065602;28;20362;-64
2021/06/18 07:34:48;;;;;;;14.80;10.73;;;;;;;31.64;36.73;100450.09;5046351;28;20021;-65
2021/06/18 07:37:14;;;;;;;15.57;9.93;;;;;;;31.56;36.94;100460.72;5065033;28;20175;-63
2021/06/18 07:39:39;;;;;;;16.27;10.10;;;;;;;31.68;36.61;100455.16;5065511;28;20120;-64
2021/06/18 07:42:05;;;;;;;17.30;10.35;;;;;;;31.84;36.24;100466.06;5065530;28;20516;-64
2021/06/18 07:44:32;;;;;;;14.35;11.55;;;;;;;32.03;35.66;100449.00;5065576;28;20058;-63
2021/06/18 07:46:57;;;;;;;16.10;9.82;;;;;;;32.10;35.79;100465.34;5065610;28;20040;-64
2021/06/18 07:49:23;;;;;;;17.20;11.07;;;;;;;32.03;35.28;100458.91;5065547;28;20025;-64
2021/06/18 07:51:48;;;;;;;15.65;9.80;;;;;;;32.01;35.61;100455.53;5065544;28;20088;-64
2021/06/18 07:54:14;;;;;;;17.52;10.45;;;;;;;32.18;35.17;100463.72;5065520;28;20025;-63
2021/06/18 07:56:43;;;;;;;15.63;10.32;;;;;;;32.24;35.03;100468.47;5065615;28;20040;-63
2021/06/18 07:59:09;;;;;;;16.42;10.93;;;;;;;32.02;35.14;100463.41;5065128;28;20021;-63
2021/06/18 08:01:34;;;;;;;19.95;11.98;;;;;;;31.94;35.41;100462.44;5065253;28;20035;-62
2021/06/18 08:04:00;;;;;;;19.58;12.15;;;;;;;32.03;35.22;100466.97;5064972;28;20036;-63
2021/06/18 08:06:25;;;;;;;20.23;11.77;;;;;;;32.03;34.65;100485.75;5065090;28;20050;-63
2021/06/18 08:08:50;;;;;;;19.33;13.00;;;;;;;32.03;34.67;100475.00;5064780;28;20032;-63
2021/06/18 08:11:16;;;;;;;20.48;12.20;;;;;;;32.03;35.06;100486.56;5064841;28;20041;-63
2021/06/18 08:13:41;;;;;;;22.17;11.63;;;;;;;32.18;34.48;100482.50;5064853;28;20093;-64
2021/06/18 08:16:07;;;;;;;21.98;11.60;;;;;;;32.35;34.18;100489.72;5064667;28;20049;-63
2021/06/18 08:18:36;;;;;;;20.65;12.43;;;;;;;32.55;33.73;100475.28;5064853;28;20446;-64
2021/06/18 08:21:07;;;;;;;18.88;11.70;;;;;;;32.71;33.79;100472.72;5064917;28;20473;-63
2021/06/18 08:23:33;;;;;;;21.88;11.77;;;;;;;33.08;33.17;100483.41;5064685;28;20013;-63
2021/06/18 08:25:58;;;;;;;19.90;12.27;;;;;;;33.36;32.81;100488.56;5064610;28;20032;-64
2021/06/18 08:28:24;;;;;;;20.92;12.07;;;;;;;33.52;32.76;100482.41;5064451;28;20021;-63
2021/06/18 08:30:50;;;;;;;17.92;10.90;;;;;;;33.65;32.53;100478.44;5064546;28;20085;-64
2021/06/18 08:33:15;;;;;;;17.45;11.13;;;;;;;33.74;32.28;100478.28;5064255;28;20040;-62
2021/06/18 08:35:40;;;;;;;19.48;12.13;;;;;;;33.96;31.42;100477.84;5064399;28;20028;-63
2021/06/18 08:38:06;;;;;;;19.95;10.85;;;;;;;34.07;31.50;100476.66;5064471;28;20128;-63
2021/06/18 08:40:33;;;;;;;20.85;12.20;;;;;;;34.29;31.40;100477.91;5062938;28;20025;-63
2021/06/18 08:43:00;;;;;;;16.73;10.88;;;;;;;34.45;31.13;100473.50;5064191;28;20492;-62
2021/06/18 08:45:26;;;;;;;20.13;11.45;;;;;;;34.27;31.27;100477.22;5064253;28;20039;-62
2021/06/18 08:47:51;;;;;;;16.38;11.10;;;;;;;34.46;31.38;100483.28;5063752;28;20025;-63
2021/06/18 08:50:25;;;;;;;21.55;11.82;;;;;;;34.55;30.47;100467.94;5063787;28;20055;-63
2021/06/18 08:52:59;;;;;;;12.38;10.27;;;;;;;34.60;30.49;100477.19;5064202;28;20052;-63
2021/06/18 08:55:30;;;;;;;17.20;11.43;;;;;;;34.54;30.94;100495.91;5064123;28;20025;-63
2021/06/18 08:57:59;;;;;;;15.15;11.30;;;;;;;34.69;30.74;100496.09;5064156;28;20489;-63
2021/06/18 09:00:26;;;;;;;16.85;10.00;;;;;;;34.81;30.20;100500.09;5063585;28;20096;-64
2021/06/18 09:02:52;;;;;;;14.93;10.95;;;;;;;34.73;30.39;100500.97;5063917;28;20032;-63
2021/06/18 09:05:21;;;;;;;17.27;9.90;;;;;;;34.48;30.80;100497.41;5063890;28;20029;-63
2021/06/18 09:07:59;;;;;;;13.07;9.90;;;;;;;34.20;31.15;100508.53;5064135;28;20035;-63
2021/06/18 09:10:37;;;;;;;14.23;9.52;;;;;;;34.51;31.44;100505.16;5063503;28;20459;-63
2021/06/18 09:13:34;;;;;;;12.18;9.20;;;;;;;34.86;30.35;100503.13;5063941;28;20071;-63
2021/06/18 09:16:00;;;;;;;13.57;8.45;;;;;;;35.14;30.31;100510.00;5063795;28;20057;-64
2021/06/18 09:18:26;;;;;;;9.18;7.85;;;;;;;35.39;29.91;100509.91;5063759;28;20079;-63
2021/06/18 09:20:54;;;;;;;18.25;8.02;;;;;;;35.50;29.51;100506.00;5063622;28;20281;-63
2021/06/18 09:23:32;;;;;;;13.20;8.48;;;;;;;35.56;29.27;100507.97;5063860;28;20024;-63
2021/06/18 09:26:17;;;;;;;11.60;8.00;;;;;;;35.32;29.52;100504.38;5063767;28;20483;-64
2021/06/18 09:29:16;;;;;;;10.48;8.13;;;;;;;35.22;29.29;100498.34;5063610;28;20093;-65
2021/06/18 09:31:47;;;;;;;12.52;7.57;;;;;;;35.31;29.47;100499.16;5063681;28;20040;-63
2021/06/18 09:34:14;;;;;;;10.40;7.85;;;;;;;35.33;29.42;100497.13;5062460;28;20025;-63
2021/06/18 09:36:40;;;;;;;9.27;7.43;;;;;;;35.32;29.45;100498.16;5063462;28;20051;-64
2021/06/18 09:39:09;;;;;;;9.38;7.80;;;;;;;35.40;29.30;100508.06;5063486;28;20017;-64
2021/06/18 09:41:44;;;;;;;11.60;7.22;;;;;;;35.58;29.46;100514.06;5063839;28;20119;-64
2021/06/18 09:44:18;;;;;;;9.02;6.93;;;;;;;35.75;29.15;100510.47;5045589;28;20033;-64
2021/06/18 09:46:52;;;;;;;7.57;6.43;;;;;;;35.88;28.69;100505.31;5063479;28;20017;-64
2021/06/18 09:49:29;;;;;;;8.32;6.80;;;;;;;36.21;28.32;100520.47;5063572;28;20062;-64
2021/06/18 09:51:59;;;;;;;9.25;7.00;;;;;;;36.17;27.93;100521.84;5063556;28;20094;-62
2021/06/18 09:54:31;;;;;;;8.80;6.90;;;;;;;36.34;27.69;100517.19;5063713;28;20396;-64
2021/06/18 09:57:09;;;;;;;8.35;6.53;;;;;;;35.88;28.26;100515.28;5063444;28;20062;-63
2021/06/18 09:59:53;;;;;;;7.10;5.63;;;;;;;35.83;28.77;100524.75;5062566;28;20021;-64
2021/06/18 10:02:20;;;;;;;7.70;6.63;;;;;;;35.92;28.29;100516.59;5063167;28;20111;-63
2021/06/18 10:04:48;;;;;;;8.98;5.32;;;;;;;35.74;28.41;100525.81;5063290;28;20025;-63
2021/06/18 10:07:14;;;;;;;7.32;5.50;;;;;;;35.57;28.47;100520.47;5063033;28;20055;-63
2021/06/18 10:09:40;;;;;;;8.52;5.90;;;;;;;35.22;28.83;100528.03;5063009;28;20032;-63
2021/06/18 10:12:07;;;;;;;6.15;5.57;;;;;;;34.95;29.30;100530.94;5045306;28;20384;-63
2021/06/18 10:14:33;;;;;;;7.00;5.63;;;;;;;34.74;29.74;100537.72;5063146;28;20036;-63
2021/06/18 10:17:00;;;;;;;10.45;5.75;;;;;;;34.49;30.01;100539.53;5045247;28;20048;-64
2021/06/18 10:19:25;;;;;;;8.65;5.93;;;;;;;34.22;30.14;100545.06;5063241;28;20021;-63
2021/06/18 10:22:01;;;;;;;8.45;5.72;;;;;;;34.03;30.57;100554.25;5063324;28;20036;-63
2021/06/18 10:24:35;;;;;;;6.22;5.40;;;;;;;33.78;31.17;100559.56;5063457;28;20021;-64
2021/06/18 10:27:01;;;;;;;7.88;5.85;;;;;;;33.69;31.04;100549.78;5062981;28;20070;-63
2021/06/18 10:29:37;;;;;;;7.03;6.30;;;;;;;33.50;31.14;100557.09;5062795;28;20021;-64
2021/06/18 10:32:27;;;;;;;10.68;7.00;;;;;;;33.14;31.52;100558.91;5063028;28;20079;-63
2021/06/18 10:34:57;;;;;;;9.73;7.75;;;;;;;32.81;32.26;100553.28;5063054;28;20330;-63
2021/06/18 10:37:25;;;;;;;9.35;8.43;;;;;;;32.45;32.53;100559.47;5062937;28;20036;-64
2021/06/18 10:39:56;;;;;;;8.98;8.02;;;;;;;32.14;33.52;100560.69;5062958;28;20013;-63
2021/06/18 10:42:23;;;;;;;11.75;8.27;;;;;;;32.12;33.59;100565.38;5062669;28;20021;-63
2021/06/18 10:44:50;;;;;;;11.57;10.15;;;;;;;32.02;33.47;100565.44;5062711;28;20356;-63
2021/06/18 10:47:29;;;;;;;10.88;9.57;;;;;;;31.83;33.92;100576.25;5044930;28;20390;-63
2021/06/18 10:49:55;;;;;;;10.20;9.10;;;;;;;31.56;34.32;100568.03;5062836;28;20128;-63
2021/06/18 10:52:24;;;;;;;12.90;10.85;;;;;;;31.31;34.69;100567.69;5063064;28;20596;-63
2021/06/18 10:54:53;;;;;;;12.80;11.30;;;;;;;31.07;35.44;100569.00;5062760;28;20025;-62
2021/06/18 10:57:23;;;;;;;11.45;9.90;;;;;;;30.81;36.08;100566.91;5062715;28;20112;-63
2021/06/18 10:59:51;;;;;;;13.65;12.07;;;;;;;30.58;36.60;100571.69;5062778;28;20013;-64
2021/06/18 11:02:26;;;;;;;12.40;10.98;;;;;;;29.99;37.64;100572.41;5062815;28;20041;-63
2021/06/18 11:04:55;;;;;;;15.85;12.38;;;;;;;29.51;38.59;100572.03;5062641;28;20025;-62
2021/06/18 11:07:38;;;;;;;16.88;11.93;;;;;;;28.95;39.60;100573.16;5061371;28;20021;-62
2021/06/18 11:10:07;;;;;;;15.30;10.93;;;;;;;28.45;40.48;100573.69;5064159;28;20567;-63
2021/06/18 11:12:38;;;;;;;18.02;12.57;;;;;;;28.04;41.28;100574.22;5066326;28;20039;-62
2021/06/18 11:15:14;;;;;;;13.85;11.02;;;;;;;27.57;42.65;100569.84;5066261;28;20051;-62
2021/06/18 11:17:48;;;;;;;19.10;12.23;;;;;;;27.34;43.25;100576.97;5066125;28;20025;-63
2021/06/18 11:20:17;;;;;;;12.55;10.57;;;;;;;27.24;43.46;100584.00;5066027;28;20017;-63